sensor_id;sensor_type;location;lat;lon;timestamp;pressure;altitude;pressure_sealevel;temperature
68127;BMP180;54931;52.098;21.006;2022-07-03T00:00:14;100983.40;;;18.00
68127;BMP180;54931;52.098;21.006;2022-07-03T00:03:01;100984.80;;;17.90
68127;BMP180;54931;52.098;21.006;2022-07-03T00:05:28;100985.60;;;17.90
68127;BMP180;54931;52.098;21.006;2022-07-03T00:07:56;100989.60;;;17.80
68127;BMP180;54931;52.098;21.006;2022-07-03T00:10:24;100983.60;;;17.80
68127;BMP180;54931;52.098;21.006;2022-07-03T00:12:51;100978.00;;;17.70
68127;BMP180;54931;52.098;21.006;2022-07-03T00:15:18;100976.20;;;17.60
68127;BMP180;54931;52.098;21.006;2022-07-03T00:17:46;100969.40;;;17.60
68127;BMP180;54931;52.098;21.006;2022-07-03T00:20:13;100968.80;;;17.50
68127;BMP180;54931;52.098;21.006;2022-07-03T00:22:43;100967.60;;;17.50
68127;BMP180;54931;52.098;21.006;2022-07-03T00:25:13;100971.80;;;17.40
68127;BMP180;54931;52.098;21.006;2022-07-03T00:27:43;100973.40;;;17.30
68127;BMP180;54931;52.098;21.006;2022-07-03T00:30:12;100974.00;;;17.30
68127;BMP180;54931;52.098;21.006;2022-07-03T00:32:41;100975.00;;;17.30
68127;BMP180;54931;52.098;21.006;2022-07-03T00:35:16;100975.40;;;17.20
68127;BMP180;54931;52.098;21.006;2022-07-03T00:37:43;100975.80;;;17.18
68127;BMP180;54931;52.098;21.006;2022-07-03T00:40:11;100976.00;;;17.10
68127;BMP180;54931;52.098;21.006;2022-07-03T00:42:39;100975.80;;;17.10
68127;BMP180;54931;52.098;21.006;2022-07-03T00:45:08;100973.40;;;17.10
68127;BMP180;54931;52.098;21.006;2022-07-03T00:47:36;100974.40;;;17.10
68127;BMP180;54931;52.098;21.006;2022-07-03T00:50:08;100975.80;;;17.10
68127;BMP180;54931;52.098;21.006;2022-07-03T00:52:37;100973.40;;;17.10
68127;BMP180;54931;52.098;21.006;2022-07-03T00:55:15;100970.40;;;17.10
68127;BMP180;54931;52.098;21.006;2022-07-03T00:57:48;100965.60;;;17.20
68127;BMP180;54931;52.098;21.006;2022-07-03T01:00:17;100966.60;;;17.20
68127;BMP180;54931;52.098;21.006;2022-07-03T01:05:38;100959.00;;;17.30
68127;BMP180;54931;52.098;21.006;2022-07-03T01:15:18;100956.80;;;17.30
68127;BMP180;54931;52.098;21.006;2022-07-03T01:17:57;100950.20;;;17.22
68127;BMP180;54931;52.098;21.006;2022-07-03T01:20:27;100946.80;;;17.20
68127;BMP180;54931;52.098;21.006;2022-07-03T01:23:00;100947.00;;;17.30
68127;BMP180;54931;52.098;21.006;2022-07-03T01:25:44;100940.40;;;17.30
68127;BMP180;54931;52.098;21.006;2022-07-03T01:28:20;100943.60;;;17.30
68127;BMP180;54931;52.098;21.006;2022-07-03T01:30:52;100942.40;;;17.20
68127;BMP180;54931;52.098;21.006;2022-07-03T01:33:25;100940.00;;;17.20
68127;BMP180;54931;52.098;21.006;2022-07-03T01:36:05;100940.00;;;17.20
68127;BMP180;54931;52.098;21.006;2022-07-03T01:38:37;100934.80;;;17.30
68127;BMP180;54931;52.098;21.006;2022-07-03T01:41:08;100938.00;;;17.24
68127;BMP180;54931;52.098;21.006;2022-07-03T01:43:48;100939.60;;;17.20
68127;BMP180;54931;52.098;21.006;2022-07-03T01:46:19;100935.00;;;17.30
68127;BMP180;54931;52.098;21.006;2022-07-03T01:48:48;100936.00;;;17.30
68127;BMP180;54931;52.098;21.006;2022-07-03T01:51:17;100935.20;;;17.30
68127;BMP180;54931;52.098;21.006;2022-07-03T01:53:48;100931.20;;;17.30
68127;BMP180;54931;52.098;21.006;2022-07-03T01:56:32;100932.20;;;17.22
68127;BMP180;54931;52.098;21.006;2022-07-03T01:59:00;100927.60;;;17.20
68127;BMP180;54931;52.098;21.006;2022-07-03T02:01:54;100928.40;;;17.20
68127;BMP180;54931;52.098;21.006;2022-07-03T02:07:50;100924.80;;;17.30
68127;BMP180;54931;52.098;21.006;2022-07-03T02:10:30;100918.20;;;17.40
68127;BMP180;54931;52.098;21.006;2022-07-03T02:13:11;100922.60;;;17.30
68127;BMP180;54931;52.098;21.006;2022-07-03T02:15:45;100921.80;;;17.30
68127;BMP180;54931;52.098;21.006;2022-07-03T02:18:30;100921.00;;;17.20
68127;BMP180;54931;52.098;21.006;2022-07-03T02:21:17;100922.00;;;17.20
68127;BMP180;54931;52.098;21.006;2022-07-03T02:26:59;100918.80;;;17.00
68127;BMP180;54931;52.098;21.006;2022-07-03T02:29:33;100918.40;;;16.90
68127;BMP180;54931;52.098;21.006;2022-07-03T02:32:04;100919.20;;;16.90
68127;BMP180;54931;52.098;21.006;2022-07-03T02:34:35;100917.80;;;16.90
68127;BMP180;54931;52.098;21.006;2022-07-03T02:37:12;100917.20;;;16.80
68127;BMP180;54931;52.098;21.006;2022-07-03T02:42:42;100916.80;;;16.90
68127;BMP180;54931;52.098;21.006;2022-07-03T02:45:13;100917.60;;;17.00
68127;BMP180;54931;52.098;21.006;2022-07-03T02:47:56;100917.60;;;17.00
68127;BMP180;54931;52.098;21.006;2022-07-03T02:50:27;100915.80;;;17.00
68127;BMP180;54931;52.098;21.006;2022-07-03T02:53:22;100913.80;;;17.00
68127;BMP180;54931;52.098;21.006;2022-07-03T02:56:23;100914.60;;;17.10
68127;BMP180;54931;52.098;21.006;2022-07-03T03:05:02;100915.40;;;17.20
68127;BMP180;54931;52.098;21.006;2022-07-03T03:10:41;100914.40;;;17.34
68127;BMP180;54931;52.098;21.006;2022-07-03T03:13:13;100910.60;;;17.46
68127;BMP180;54931;52.098;21.006;2022-07-03T03:16:06;100910.00;;;17.50
68127;BMP180;54931;52.098;21.006;2022-07-03T03:18:40;100900.40;;;17.58
68127;BMP180;54931;52.098;21.006;2022-07-03T03:21:17;100906.20;;;17.60
68127;BMP180;54931;52.098;21.006;2022-07-03T03:26:23;100897.40;;;17.78
68127;BMP180;54931;52.098;21.006;2022-07-03T03:28:52;100893.60;;;17.90
68127;BMP180;54931;52.098;21.006;2022-07-03T03:31:21;100888.20;;;18.10
68127;BMP180;54931;52.098;21.006;2022-07-03T03:33:50;100888.40;;;18.20
68127;BMP180;54931;52.098;21.006;2022-07-03T03:36:20;100884.40;;;18.50
68127;BMP180;54931;52.098;21.006;2022-07-03T03:38:48;100886.00;;;18.70
68127;BMP180;54931;52.098;21.006;2022-07-03T03:41:16;100887.60;;;18.90
68127;BMP180;54931;52.098;21.006;2022-07-03T03:43:45;100889.40;;;19.00
68127;BMP180;54931;52.098;21.006;2022-07-03T03:46:12;100889.00;;;19.10
68127;BMP180;54931;52.098;21.006;2022-07-03T03:48:41;100893.20;;;19.20
68127;BMP180;54931;52.098;21.006;2022-07-03T03:51:09;100888.60;;;19.32
68127;BMP180;54931;52.098;21.006;2022-07-03T03:53:36;100886.20;;;19.50
68127;BMP180;54931;52.098;21.006;2022-07-03T03:58:36;100886.00;;;19.60
68127;BMP180;54931;52.098;21.006;2022-07-03T04:01:06;100887.60;;;19.70
68127;BMP180;54931;52.098;21.006;2022-07-03T04:03:36;100886.40;;;19.80
68127;BMP180;54931;52.098;21.006;2022-07-03T04:06:04;100888.80;;;19.90
68127;BMP180;54931;52.098;21.006;2022-07-03T04:08:32;100885.00;;;20.00
68127;BMP180;54931;52.098;21.006;2022-07-03T04:11:00;100886.20;;;20.10
68127;BMP180;54931;52.098;21.006;2022-07-03T04:13:28;100888.40;;;20.22
68127;BMP180;54931;52.098;21.006;2022-07-03T04:15:55;100887.80;;;20.22
68127;BMP180;54931;52.098;21.006;2022-07-03T04:18:23;100890.40;;;20.40
68127;BMP180;54931;52.098;21.006;2022-07-03T04:20:50;100882.40;;;20.50
68127;BMP180;54931;52.098;21.006;2022-07-03T04:23:18;100883.40;;;20.66
68127;BMP180;54931;52.098;21.006;2022-07-03T04:25:46;100879.20;;;20.70
68127;BMP180;54931;52.098;21.006;2022-07-03T04:28:14;100882.40;;;20.80
68127;BMP180;54931;52.098;21.006;2022-07-03T04:30:42;100886.20;;;20.94
68127;BMP180;54931;52.098;21.006;2022-07-03T04:33:09;100889.40;;;21.10
68127;BMP180;54931;52.098;21.006;2022-07-03T04:35:36;100887.80;;;21.30
68127;BMP180;54931;52.098;21.006;2022-07-03T04:38:05;100887.60;;;21.30
68127;BMP180;54931;52.098;21.006;2022-07-03T04:40:32;100889.20;;;21.40
68127;BMP180;54931;52.098;21.006;2022-07-03T04:42:59;100887.00;;;21.50
68127;BMP180;54931;52.098;21.006;2022-07-03T04:45:27;100888.00;;;21.58
68127;BMP180;54931;52.098;21.006;2022-07-03T04:47:54;100886.40;;;21.60
68127;BMP180;54931;52.098;21.006;2022-07-03T04:50:21;100890.60;;;21.70
68127;BMP180;54931;52.098;21.006;2022-07-03T04:52:49;100888.60;;;21.70
68127;BMP180;54931;52.098;21.006;2022-07-03T04:55:16;100886.40;;;21.78
68127;BMP180;54931;52.098;21.006;2022-07-03T04:57:44;100886.80;;;21.80
68127;BMP180;54931;52.098;21.006;2022-07-03T05:00:12;100886.80;;;21.98
68127;BMP180;54931;52.098;21.006;2022-07-03T05:02:39;100884.80;;;22.10
68127;BMP180;54931;52.098;21.006;2022-07-03T05:05:07;100885.60;;;22.30
68127;BMP180;54931;52.098;21.006;2022-07-03T05:07:34;100891.40;;;22.40
68127;BMP180;54931;52.098;21.006;2022-07-03T05:10:02;100896.80;;;22.56
68127;BMP180;54931;52.098;21.006;2022-07-03T05:12:29;100893.00;;;22.80
68127;BMP180;54931;52.098;21.006;2022-07-03T05:14:56;100894.80;;;23.00
68127;BMP180;54931;52.098;21.006;2022-07-03T05:17:23;100893.00;;;23.10
68127;BMP180;54931;52.098;21.006;2022-07-03T05:19:50;100897.00;;;23.00
68127;BMP180;54931;52.098;21.006;2022-07-03T05:22:36;100896.20;;;23.02
68127;BMP180;54931;52.098;21.006;2022-07-03T05:25:05;100892.80;;;23.00
68127;BMP180;54931;52.098;21.006;2022-07-03T05:27:36;100889.60;;;23.00
68127;BMP180;54931;52.098;21.006;2022-07-03T05:30:05;100889.20;;;22.80
68127;BMP180;54931;52.098;21.006;2022-07-03T05:32:33;100888.00;;;22.80
68127;BMP180;54931;52.098;21.006;2022-07-03T05:35:00;100888.00;;;22.80
68127;BMP180;54931;52.098;21.006;2022-07-03T05:37:28;100890.00;;;22.90
68127;BMP180;54931;52.098;21.006;2022-07-03T05:39:55;100886.60;;;22.94
68127;BMP180;54931;52.098;21.006;2022-07-03T05:42:23;100885.40;;;22.90
68127;BMP180;54931;52.098;21.006;2022-07-03T05:44:50;100887.00;;;23.02
68127;BMP180;54931;52.098;21.006;2022-07-03T05:47:17;100885.60;;;23.20
68127;BMP180;54931;52.098;21.006;2022-07-03T05:49:45;100885.00;;;23.30
68127;BMP180;54931;52.098;21.006;2022-07-03T05:52:14;100892.60;;;23.52
68127;BMP180;54931;52.098;21.006;2022-07-03T05:54:42;100896.00;;;23.66
68127;BMP180;54931;52.098;21.006;2022-07-03T05:57:10;100895.60;;;23.80
68127;BMP180;54931;52.098;21.006;2022-07-03T05:59:37;100897.40;;;24.00
68127;BMP180;54931;52.098;21.006;2022-07-03T06:02:04;100898.20;;;24.08
68127;BMP180;54931;52.098;21.006;2022-07-03T06:04:32;100896.80;;;24.00
68127;BMP180;54931;52.098;21.006;2022-07-03T06:06:59;100894.20;;;24.06
68127;BMP180;54931;52.098;21.006;2022-07-03T06:09:26;100892.60;;;24.10
68127;BMP180;54931;52.098;21.006;2022-07-03T06:11:53;100893.60;;;24.28
68127;BMP180;54931;52.098;21.006;2022-07-03T06:14:21;100896.00;;;24.40
68127;BMP180;54931;52.098;21.006;2022-07-03T06:16:48;100901.60;;;24.30
68127;BMP180;54931;52.098;21.006;2022-07-03T06:19:15;100904.20;;;24.40
68127;BMP180;54931;52.098;21.006;2022-07-03T06:21:42;100904.40;;;24.40
68127;BMP180;54931;52.098;21.006;2022-07-03T06:24:11;100908.20;;;24.20
68127;BMP180;54931;52.098;21.006;2022-07-03T06:26:38;100905.00;;;24.26
68127;BMP180;54931;52.098;21.006;2022-07-03T06:29:06;100913.60;;;24.34
68127;BMP180;54931;52.098;21.006;2022-07-03T06:31:33;100909.20;;;24.50
68127;BMP180;54931;52.098;21.006;2022-07-03T06:34:00;100907.20;;;24.48
68127;BMP180;54931;52.098;21.006;2022-07-03T06:36:28;100907.80;;;24.48
68127;BMP180;54931;52.098;21.006;2022-07-03T06:38:55;100911.40;;;24.50
68127;BMP180;54931;52.098;21.006;2022-07-03T06:41:23;100911.60;;;24.60
68127;BMP180;54931;52.098;21.006;2022-07-03T06:43:50;100908.00;;;24.68
68127;BMP180;54931;52.098;21.006;2022-07-03T06:46:18;100907.20;;;24.78
68127;BMP180;54931;52.098;21.006;2022-07-03T06:48:45;100905.60;;;25.00
68127;BMP180;54931;52.098;21.006;2022-07-03T06:51:12;100912.00;;;25.08
68127;BMP180;54931;52.098;21.006;2022-07-03T06:53:39;100906.00;;;24.90
68127;BMP180;54931;52.098;21.006;2022-07-03T06:56:07;100908.40;;;24.80
68127;BMP180;54931;52.098;21.006;2022-07-03T06:58:34;100911.40;;;24.90
68127;BMP180;54931;52.098;21.006;2022-07-03T07:01:01;100900.40;;;24.68
68127;BMP180;54931;52.098;21.006;2022-07-03T07:03:28;100898.00;;;24.70
68127;BMP180;54931;52.098;21.006;2022-07-03T07:05:56;100892.80;;;24.70
68127;BMP180;54931;52.098;21.006;2022-07-03T07:08:23;100893.40;;;24.76
68127;BMP180;54931;52.098;21.006;2022-07-03T07:10:51;100879.60;;;24.90
68127;BMP180;54931;52.098;21.006;2022-07-03T07:13:18;100877.00;;;24.78
68127;BMP180;54931;52.098;21.006;2022-07-03T07:15:45;100878.80;;;24.90
68127;BMP180;54931;52.098;21.006;2022-07-03T07:18:12;100872.40;;;25.00
68127;BMP180;54931;52.098;21.006;2022-07-03T07:20:40;100867.80;;;24.96
68127;BMP180;54931;52.098;21.006;2022-07-03T07:23:07;100864.60;;;25.00
68127;BMP180;54931;52.098;21.006;2022-07-03T07:25:35;100868.20;;;25.08
68127;BMP180;54931;52.098;21.006;2022-07-03T07:28:03;100862.40;;;24.90
68127;BMP180;54931;52.098;21.006;2022-07-03T07:30:30;100860.00;;;24.90
68127;BMP180;54931;52.098;21.006;2022-07-03T07:32:57;100855.60;;;24.90
68127;BMP180;54931;52.098;21.006;2022-07-03T07:35:25;100859.00;;;24.70
68127;BMP180;54931;52.098;21.006;2022-07-03T07:37:52;100859.60;;;24.50
68127;BMP180;54931;52.098;21.006;2022-07-03T07:40:19;100853.80;;;24.50
68127;BMP180;54931;52.098;21.006;2022-07-03T07:42:47;100849.80;;;24.44
68127;BMP180;54931;52.098;21.006;2022-07-03T07:45:14;100850.20;;;24.70
68127;BMP180;54931;52.098;21.006;2022-07-03T07:47:42;100848.00;;;25.00
68127;BMP180;54931;52.098;21.006;2022-07-03T07:50:09;100856.20;;;25.20
68127;BMP180;54931;52.098;21.006;2022-07-03T07:52:37;100853.00;;;25.20
68127;BMP180;54931;52.098;21.006;2022-07-03T07:55:05;100851.60;;;25.32
68127;BMP180;54931;52.098;21.006;2022-07-03T07:57:36;100854.20;;;25.54
68127;BMP180;54931;52.098;21.006;2022-07-03T08:00:12;100847.60;;;25.62
68127;BMP180;54931;52.098;21.006;2022-07-03T08:02:41;100850.60;;;25.60
68127;BMP180;54931;52.098;21.006;2022-07-03T08:05:28;100843.00;;;25.52
68127;BMP180;54931;52.098;21.006;2022-07-03T08:08:15;100849.00;;;25.40
68127;BMP180;54931;52.098;21.006;2022-07-03T08:10:50;100850.00;;;25.72
68127;BMP180;54931;52.098;21.006;2022-07-03T08:13:19;100846.60;;;25.98
68127;BMP180;54931;52.098;21.006;2022-07-03T08:15:48;100845.00;;;26.18
68127;BMP180;54931;52.098;21.006;2022-07-03T08:18:15;100850.20;;;26.46
68127;BMP180;54931;52.098;21.006;2022-07-03T08:20:43;100845.20;;;26.60
68127;BMP180;54931;52.098;21.006;2022-07-03T08:23:10;100842.80;;;26.48
68127;BMP180;54931;52.098;21.006;2022-07-03T08:25:38;100848.60;;;26.58
68127;BMP180;54931;52.098;21.006;2022-07-03T08:28:05;100845.80;;;26.80
68127;BMP180;54931;52.098;21.006;2022-07-03T08:30:34;100838.20;;;26.70
68127;BMP180;54931;52.098;21.006;2022-07-03T08:33:01;100832.40;;;26.40
68127;BMP180;54931;52.098;21.006;2022-07-03T08:35:29;100831.80;;;26.30
68127;BMP180;54931;52.098;21.006;2022-07-03T08:37:56;100825.80;;;26.40
68127;BMP180;54931;52.098;21.006;2022-07-03T08:40:24;100827.60;;;26.66
68127;BMP180;54931;52.098;21.006;2022-07-03T08:42:59;100820.80;;;26.88
68127;BMP180;54931;52.098;21.006;2022-07-03T08:45:34;100821.60;;;26.80
68127;BMP180;54931;52.098;21.006;2022-07-03T08:48:05;100817.20;;;27.00
68127;BMP180;54931;52.098;21.006;2022-07-03T08:50:36;100816.00;;;27.20
68127;BMP180;54931;52.098;21.006;2022-07-03T08:53:04;100814.80;;;27.40
68127;BMP180;54931;52.098;21.006;2022-07-03T08:55:31;100811.80;;;27.50
68127;BMP180;54931;52.098;21.006;2022-07-03T08:58:01;100807.00;;;27.30
68127;BMP180;54931;52.098;21.006;2022-07-03T09:00:30;100809.40;;;27.22
68127;BMP180;54931;52.098;21.006;2022-07-03T09:03:00;100810.40;;;27.10
68127;BMP180;54931;52.098;21.006;2022-07-03T09:05:31;100805.60;;;27.14
68127;BMP180;54931;52.098;21.006;2022-07-03T09:08:00;100801.00;;;27.20
68127;BMP180;54931;52.098;21.006;2022-07-03T09:10:28;100807.60;;;27.28
68127;BMP180;54931;52.098;21.006;2022-07-03T09:12:56;100805.20;;;27.60
68127;BMP180;54931;52.098;21.006;2022-07-03T09:15:23;100807.80;;;27.80
68127;BMP180;54931;52.098;21.006;2022-07-03T09:18:05;100809.40;;;27.88
68127;BMP180;54931;52.098;21.006;2022-07-03T09:20:36;100811.40;;;27.90
68127;BMP180;54931;52.098;21.006;2022-07-03T09:23:18;100807.80;;;27.86
68127;BMP180;54931;52.098;21.006;2022-07-03T09:26:01;100808.00;;;27.80
68127;BMP180;54931;52.098;21.006;2022-07-03T09:28:54;100801.40;;;27.60
68127;BMP180;54931;52.098;21.006;2022-07-03T09:31:31;100803.20;;;27.60
68127;BMP180;54931;52.098;21.006;2022-07-03T09:36:44;100796.40;;;27.70
68127;BMP180;54931;52.098;21.006;2022-07-03T09:42:08;100798.40;;;27.60
68127;BMP180;54931;52.098;21.006;2022-07-03T09:44:42;100794.40;;;27.60
68127;BMP180;54931;52.098;21.006;2022-07-03T09:49:57;100793.00;;;27.94
68127;BMP180;54931;52.098;21.006;2022-07-03T09:52:41;100795.00;;;28.10
68127;BMP180;54931;52.098;21.006;2022-07-03T10:00:27;100795.20;;;28.40
68127;BMP180;54931;52.098;21.006;2022-07-03T10:03:05;100786.80;;;28.10
68127;BMP180;54931;52.098;21.006;2022-07-03T10:05:36;100792.60;;;27.94
68127;BMP180;54931;52.098;21.006;2022-07-03T10:08:14;100792.20;;;28.24
68127;BMP180;54931;52.098;21.006;2022-07-03T10:10:48;100789.00;;;28.50
68127;BMP180;54931;52.098;21.006;2022-07-03T10:13:16;100785.80;;;28.54
68127;BMP180;54931;52.098;21.006;2022-07-03T10:15:44;100786.00;;;28.90
68127;BMP180;54931;52.098;21.006;2022-07-03T10:18:13;100780.40;;;29.18
68127;BMP180;54931;52.098;21.006;2022-07-03T10:23:10;100775.60;;;29.10
68127;BMP180;54931;52.098;21.006;2022-07-03T10:25:42;100774.00;;;29.10
68127;BMP180;54931;52.098;21.006;2022-07-03T10:28:17;100774.00;;;29.14
68127;BMP180;54931;52.098;21.006;2022-07-03T10:30:47;100765.40;;;29.18
68127;BMP180;54931;52.098;21.006;2022-07-03T10:33:16;100758.20;;;28.80
68127;BMP180;54931;52.098;21.006;2022-07-03T10:35:54;100759.60;;;28.80
68127;BMP180;54931;52.098;21.006;2022-07-03T10:38:41;100752.80;;;28.62
68127;BMP180;54931;52.098;21.006;2022-07-03T10:41:28;100753.00;;;28.30
68127;BMP180;54931;52.098;21.006;2022-07-03T10:44:15;100759.20;;;28.02
68127;BMP180;54931;52.098;21.006;2022-07-03T10:47:02;100752.40;;;28.20
68127;BMP180;54931;52.098;21.006;2022-07-03T10:49:30;100757.20;;;28.30
68127;BMP180;54931;52.098;21.006;2022-07-03T10:52:01;100759.80;;;28.30
68127;BMP180;54931;52.098;21.006;2022-07-03T10:54:34;100751.20;;;28.28
68127;BMP180;54931;52.098;21.006;2022-07-03T10:57:08;100745.40;;;28.10
68127;BMP180;54931;52.098;21.006;2022-07-03T11:12:57;100723.20;;;28.10
68127;BMP180;54931;52.098;21.006;2022-07-03T11:25:46;100719.00;;;27.96
68127;BMP180;54931;52.098;21.006;2022-07-03T11:36:33;100706.80;;;28.10
68127;BMP180;54931;52.098;21.006;2022-07-03T11:44:03;100706.60;;;27.70
68127;BMP180;54931;52.098;21.006;2022-07-03T11:46:39;100706.20;;;27.68
68127;BMP180;54931;52.098;21.006;2022-07-03T11:49:14;100708.60;;;27.60
68127;BMP180;54931;52.098;21.006;2022-07-03T11:51:52;100702.20;;;27.60
68127;BMP180;54931;52.098;21.006;2022-07-03T11:54:20;100698.40;;;27.52
68127;BMP180;54931;52.098;21.006;2022-07-03T11:56:47;100695.80;;;27.50
68127;BMP180;54931;52.098;21.006;2022-07-03T11:59:15;100696.40;;;27.40
68127;BMP180;54931;52.098;21.006;2022-07-03T12:01:44;100693.00;;;27.40
68127;BMP180;54931;52.098;21.006;2022-07-03T12:06:55;100690.40;;;27.32
68127;BMP180;54931;52.098;21.006;2022-07-03T12:09:32;100682.40;;;27.20
68127;BMP180;54931;52.098;21.006;2022-07-03T12:12:08;100679.60;;;27.22
68127;BMP180;54931;52.098;21.006;2022-07-03T12:14:48;100680.80;;;27.40
68127;BMP180;54931;52.098;21.006;2022-07-03T12:17:21;100673.20;;;27.40
68127;BMP180;54931;52.098;21.006;2022-07-03T12:19:52;100671.40;;;27.40
68127;BMP180;54931;52.098;21.006;2022-07-03T12:22:40;100667.20;;;27.38
68127;BMP180;54931;52.098;21.006;2022-07-03T12:25:10;100670.80;;;27.40
68127;BMP180;54931;52.098;21.006;2022-07-03T12:27:43;100673.60;;;27.50
68127;BMP180;54931;52.098;21.006;2022-07-03T12:30:18;100673.20;;;27.54
68127;BMP180;54931;52.098;21.006;2022-07-03T12:32:47;100668.60;;;27.80
68127;BMP180;54931;52.098;21.006;2022-07-03T12:35:21;100666.60;;;27.92
68127;BMP180;54931;52.098;21.006;2022-07-03T12:37:49;100663.00;;;28.10
68127;BMP180;54931;52.098;21.006;2022-07-03T12:40:17;100659.80;;;28.18
68127;BMP180;54931;52.098;21.006;2022-07-03T12:42:53;100665.00;;;28.08
68127;BMP180;54931;52.098;21.006;2022-07-03T12:45:25;100670.20;;;27.90
68127;BMP180;54931;52.098;21.006;2022-07-03T12:48:04;100671.00;;;27.72
68127;BMP180;54931;52.098;21.006;2022-07-03T12:50:50;100670.80;;;27.50
68127;BMP180;54931;52.098;21.006;2022-07-03T12:53:33;100671.40;;;27.40
68127;BMP180;54931;52.098;21.006;2022-07-03T12:56:06;100672.40;;;27.30
68127;BMP180;54931;52.098;21.006;2022-07-03T12:58:39;100666.80;;;27.14
68127;BMP180;54931;52.098;21.006;2022-07-03T13:01:28;100661.80;;;27.28
68127;BMP180;54931;52.098;21.006;2022-07-03T13:03:57;100659.40;;;27.52
68127;BMP180;54931;52.098;21.006;2022-07-03T13:06:25;100655.00;;;27.60
68127;BMP180;54931;52.098;21.006;2022-07-03T13:08:56;100655.80;;;27.90
68127;BMP180;54931;52.098;21.006;2022-07-03T13:11:35;100655.20;;;27.90
68127;BMP180;54931;52.098;21.006;2022-07-03T13:14:08;100655.00;;;27.76
68127;BMP180;54931;52.098;21.006;2022-07-03T13:19:22;100658.20;;;27.60
68127;BMP180;54931;52.098;21.006;2022-07-03T13:21:52;100656.20;;;27.36
68127;BMP180;54931;52.098;21.006;2022-07-03T13:24:20;100654.00;;;27.10
68127;BMP180;54931;52.098;21.006;2022-07-03T13:26:50;100648.00;;;26.92
68127;BMP180;54931;52.098;21.006;2022-07-03T13:29:17;100644.40;;;26.86
68127;BMP180;54931;52.098;21.006;2022-07-03T13:31:45;100639.80;;;26.80
68127;BMP180;54931;52.098;21.006;2022-07-03T13:34:13;100637.60;;;26.74
68127;BMP180;54931;52.098;21.006;2022-07-03T13:36:40;100634.80;;;26.74
68127;BMP180;54931;52.098;21.006;2022-07-03T13:39:08;100624.40;;;26.92
68127;BMP180;54931;52.098;21.006;2022-07-03T13:41:36;100620.80;;;27.20
68127;BMP180;54931;52.098;21.006;2022-07-03T13:44:04;100623.20;;;27.34
68127;BMP180;54931;52.098;21.006;2022-07-03T13:46:31;100617.00;;;27.50
68127;BMP180;54931;52.098;21.006;2022-07-03T13:48:59;100616.60;;;27.62
68127;BMP180;54931;52.098;21.006;2022-07-03T13:51:26;100615.20;;;27.64
68127;BMP180;54931;52.098;21.006;2022-07-03T13:53:53;100624.20;;;27.50
68127;BMP180;54931;52.098;21.006;2022-07-03T13:56:21;100621.20;;;27.48
68127;BMP180;54931;52.098;21.006;2022-07-03T13:58:48;100620.80;;;27.34
68127;BMP180;54931;52.098;21.006;2022-07-03T14:01:16;100617.20;;;27.20
68127;BMP180;54931;52.098;21.006;2022-07-03T14:03:43;100618.40;;;27.20
68127;BMP180;54931;52.098;21.006;2022-07-03T14:06:11;100614.20;;;27.00
68127;BMP180;54931;52.098;21.006;2022-07-03T14:08:38;100617.40;;;26.80
68127;BMP180;54931;52.098;21.006;2022-07-03T14:11:06;100615.40;;;26.60
68127;BMP180;54931;52.098;21.006;2022-07-03T14:13:34;100609.80;;;26.42
68127;BMP180;54931;52.098;21.006;2022-07-03T14:16:01;100610.40;;;26.30
68127;BMP180;54931;52.098;21.006;2022-07-03T14:18:28;100605.20;;;26.08
68127;BMP180;54931;52.098;21.006;2022-07-03T14:20:55;100604.40;;;26.00
68127;BMP180;54931;52.098;21.006;2022-07-03T14:23:23;100605.00;;;26.00
68127;BMP180;54931;52.098;21.006;2022-07-03T14:25:52;100599.60;;;26.00
68127;BMP180;54931;52.098;21.006;2022-07-03T14:28:20;100598.80;;;26.20
68127;BMP180;54931;52.098;21.006;2022-07-03T14:31:06;100596.00;;;26.40
68127;BMP180;54931;52.098;21.006;2022-07-03T14:33:53;100591.80;;;26.50
68127;BMP180;54931;52.098;21.006;2022-07-03T14:36:21;100583.20;;;26.52
68127;BMP180;54931;52.098;21.006;2022-07-03T14:38:49;100586.40;;;26.60
68127;BMP180;54931;52.098;21.006;2022-07-03T14:41:16;100592.20;;;26.70
68127;BMP180;54931;52.098;21.006;2022-07-03T14:43:44;100586.40;;;26.90
68127;BMP180;54931;52.098;21.006;2022-07-03T14:46:11;100582.80;;;27.00
68127;BMP180;54931;52.098;21.006;2022-07-03T14:48:39;100581.60;;;27.02
68127;BMP180;54931;52.098;21.006;2022-07-03T14:51:07;100584.00;;;27.08
68127;BMP180;54931;52.098;21.006;2022-07-03T14:53:34;100581.20;;;27.48
68127;BMP180;54931;52.098;21.006;2022-07-03T14:56:02;100578.00;;;27.92
68127;BMP180;54931;52.098;21.006;2022-07-03T14:58:31;100578.60;;;28.18
68127;BMP180;54931;52.098;21.006;2022-07-03T15:01:02;100581.00;;;28.40
68127;BMP180;54931;52.098;21.006;2022-07-03T15:03:34;100582.80;;;28.28
68127;BMP180;54931;52.098;21.006;2022-07-03T15:06:08;100577.80;;;28.20
68127;BMP180;54931;52.098;21.006;2022-07-03T15:08:57;100578.60;;;27.98
68127;BMP180;54931;52.098;21.006;2022-07-03T15:11:39;100580.40;;;27.40
68127;BMP180;54931;52.098;21.006;2022-07-03T15:14:27;100575.60;;;26.94
68127;BMP180;54931;52.098;21.006;2022-07-03T15:16:55;100585.00;;;26.62
68127;BMP180;54931;52.098;21.006;2022-07-03T15:19:26;100575.80;;;26.40
68127;BMP180;54931;52.098;21.006;2022-07-03T15:21:54;100579.40;;;26.06
68127;BMP180;54931;52.098;21.006;2022-07-03T15:24:24;100574.20;;;25.90
68127;BMP180;54931;52.098;21.006;2022-07-03T15:26:56;100574.40;;;25.90
68127;BMP180;54931;52.098;21.006;2022-07-03T15:29:24;100572.60;;;25.78
68127;BMP180;54931;52.098;21.006;2022-07-03T15:31:52;100575.00;;;25.60
68127;BMP180;54931;52.098;21.006;2022-07-03T15:34:21;100574.80;;;25.60
68127;BMP180;54931;52.098;21.006;2022-07-03T15:40:05;100567.60;;;25.40